createdAt,value
2022-09-03T00:02:46.062Z,62.16
2022-09-03T00:05:37.407Z,63.17
2022-09-03T00:08:08.844Z,63.25
2022-09-03T00:10:52.196Z,63.36
2022-09-03T00:13:32.554Z,64.04
2022-09-03T00:16:01.587Z,63.98
2022-09-03T00:18:33.555Z,64.48
2022-09-03T00:21:14.166Z,65.37
2022-09-03T00:23:44.572Z,65.23
2022-09-03T00:26:11.339Z,65.16
2022-09-03T00:28:59.858Z,65.16
2022-09-03T00:31:42.936Z,64.53
2022-09-03T00:34:27.094Z,64.11
2022-09-03T00:36:54.095Z,64.25
2022-09-03T00:39:23.189Z,64.22
2022-09-03T00:42:27.757Z,63.65
2022-09-03T00:44:55.170Z,63.50
2022-09-03T00:47:53.074Z,63.09
2022-09-03T00:50:31.502Z,62.88
2022-09-03T00:53:13.657Z,62.60
2022-09-03T00:55:58.782Z,61.64
2022-09-03T00:58:47.310Z,61.69
2022-09-03T01:01:21.019Z,60.96
2022-09-03T01:04:08.273Z,61.05
2022-09-03T01:07:18.833Z,60.83
2022-09-03T01:09:54.556Z,60.94
2022-09-03T01:12:39.898Z,60.97
2022-09-03T01:15:20.716Z,60.88
2022-09-03T01:17:59.659Z,60.46
2022-09-03T01:21:04.660Z,60.23
2022-09-03T01:23:35.930Z,60.80
2022-09-03T01:26:09.030Z,60.59
2022-09-03T01:28:51.759Z,60.57
2022-09-03T01:31:40.354Z,60.44
2022-09-03T01:34:25.916Z,60.44
2022-09-03T01:37:12.509Z,60.18
2022-09-03T01:40:00.850Z,60.42
2022-09-03T01:42:50.006Z,59.99
2022-09-03T01:45:51.148Z,59.99
2022-09-03T01:48:27.732Z,60.09
2022-09-03T01:51:03.963Z,59.98
2022-09-03T01:54:21.347Z,59.76
2022-09-03T01:57:07.107Z,59.79
2022-09-03T02:00:01.780Z,60.04
2022-09-03T02:02:39.243Z,59.96
2022-09-03T02:05:17.132Z,60.06
2022-09-03T02:07:49.325Z,60.18
2022-09-03T02:10:23.099Z,60.25
2022-09-03T02:12:55.052Z,59.98
2022-09-03T02:15:26.078Z,60.45
2022-09-03T02:17:57.914Z,60.50
2022-09-03T02:20:28.594Z,60.39
2022-09-03T02:22:57.654Z,60.34
2022-09-03T02:25:30.688Z,60.65
2022-09-03T02:27:58.138Z,60.33
2022-09-03T02:30:25.142Z,60.33
2022-09-03T02:32:51.906Z,60.07
2022-09-03T02:35:18.731Z,60.13
2022-09-03T02:37:45.555Z,60.24
2022-09-03T02:40:12.367Z,60.00
2022-09-03T02:42:39.225Z,60.02
2022-09-03T02:45:26.239Z,60.30
2022-09-03T02:47:57.134Z,60.24
2022-09-03T02:50:24.449Z,60.11
2022-09-03T02:52:51.550Z,60.39
2022-09-03T02:55:19.999Z,60.67
2022-09-03T02:57:47.005Z,60.50
2022-09-03T03:00:14.780Z,60.58
2022-09-03T03:02:43.218Z,60.45
2022-09-03T03:05:18.621Z,60.21
2022-09-03T03:07:45.433Z,59.98
2022-09-03T03:10:12.651Z,59.85
2022-09-03T03:12:40.142Z,60.09
2022-09-03T03:15:07.166Z,60.25
2022-09-03T03:17:33.942Z,64.93
2022-09-03T03:20:00.695Z,69.02
2022-09-03T03:22:27.458Z,66.91
2022-09-03T03:24:55.463Z,67.91
2022-09-03T03:27:22.592Z,67.18
2022-09-03T03:29:50.481Z,67.08
2022-09-03T03:32:17.197Z,66.37
2022-09-03T03:34:43.931Z,66.01
2022-09-03T03:37:10.665Z,66.34
2022-09-03T03:39:37.531Z,66.44
2022-09-03T03:42:04.523Z,66.32
2022-09-03T03:44:31.423Z,66.38
2022-09-03T03:46:58.268Z,66.13
2022-09-03T03:49:25.025Z,66.54
2022-09-03T03:51:51.774Z,66.37
2022-09-03T03:54:19.577Z,66.58
2022-09-03T03:56:46.778Z,66.50
2022-09-03T03:59:20.865Z,66.52
2022-09-03T04:01:50.401Z,66.29
2022-09-03T04:04:17.588Z,66.11
2022-09-03T04:06:44.394Z,65.99
2022-09-03T04:09:11.140Z,66.17
2022-09-03T04:11:37.927Z,66.15
2022-09-03T04:14:04.746Z,66.69
2022-09-03T04:16:32.950Z,66.63
2022-09-03T04:18:59.973Z,66.61
2022-09-03T04:21:29.406Z,66.71
2022-09-03T04:23:57.495Z,66.69
2022-09-03T04:26:32.840Z,66.95
2022-09-03T04:29:05.432Z,67.04
2022-09-03T04:31:33.185Z,66.94
2022-09-03T04:34:00.038Z,66.92
2022-09-03T04:36:29.323Z,66.74
2022-09-03T04:38:59.320Z,66.58
2022-09-03T04:41:28.340Z,66.44
2022-09-03T04:43:57.501Z,66.22
2022-09-03T04:46:26.935Z,66.10
2022-09-03T04:48:55.127Z,66.08
2022-09-03T04:51:28.170Z,65.96
2022-09-03T04:53:57.453Z,66.16
2022-09-03T04:56:27.330Z,65.99
2022-09-03T04:58:57.335Z,66.27
2022-09-03T05:01:27.119Z,66.73
2022-09-03T05:03:55.595Z,66.72
2022-09-03T05:06:22.434Z,67.70
2022-09-03T05:08:50.516Z,68.30
2022-09-03T05:11:18.239Z,67.88
2022-09-03T05:13:49.199Z,68.42
2022-09-03T05:16:17.591Z,69.02
2022-09-03T05:18:45.186Z,69.04
2022-09-03T05:21:14.106Z,69.13
2022-09-03T05:23:46.573Z,68.82
2022-09-03T05:26:16.499Z,68.91
2022-09-03T05:28:44.097Z,69.07
2022-09-03T05:31:14.259Z,68.83
2022-09-03T05:33:43.884Z,68.91
2022-09-03T05:36:13.569Z,68.73
2022-09-03T05:38:40.856Z,67.68
2022-09-03T05:41:10.254Z,66.82
2022-09-03T05:43:37.590Z,65.95
2022-09-03T05:46:13.226Z,65.66
2022-09-03T05:48:41.183Z,65.38
2022-09-03T05:51:10.207Z,65.51
2022-09-03T05:53:39.946Z,64.34
2022-09-03T05:56:12.520Z,62.82
2022-09-03T05:58:45.331Z,61.88
2022-09-03T06:01:21.408Z,60.67
2022-09-03T06:04:00.252Z,57.71
2022-09-03T06:06:29.344Z,55.82
2022-09-03T06:08:58.423Z,52.13
2022-09-03T06:11:28.269Z,50.80
2022-09-03T06:13:56.762Z,49.28
2022-09-03T06:16:30.644Z,47.22
2022-09-03T06:19:02.825Z,46.16
2022-09-03T06:21:30.102Z,43.68
2022-09-03T06:23:59.793Z,42.29
2022-09-03T06:26:30.799Z,40.69
2022-09-03T06:28:58.025Z,42.00
2022-09-03T06:31:26.267Z,42.74
2022-09-03T06:33:54.753Z,43.06
2022-09-03T06:36:23.901Z,42.93
2022-09-03T06:38:56.270Z,43.09
2022-09-03T06:41:25.346Z,43.29
2022-09-03T06:44:01.683Z,42.90
2022-09-03T06:46:29.702Z,42.81
2022-09-03T06:48:56.593Z,42.55
2022-09-03T06:51:26.267Z,42.11
2022-09-03T06:53:56.285Z,41.39
2022-09-03T06:56:27.316Z,40.69
2022-09-03T06:58:57.620Z,39.93
2022-09-03T07:01:27.223Z,37.91
2022-09-03T07:03:59.184Z,39.21
2022-09-03T07:06:28.094Z,39.36
2022-09-03T07:08:55.609Z,39.08
2022-09-03T07:11:24.170Z,39.13
2022-09-03T07:13:51.887Z,39.08
2022-09-03T07:16:31.088Z,38.39
2022-09-03T07:18:57.965Z,37.58
2022-09-03T07:21:30.406Z,36.91
2022-09-03T07:23:57.623Z,35.82
2022-09-03T07:26:25.591Z,35.10
2022-09-03T07:28:54.206Z,35.01
2022-09-03T07:31:26.440Z,35.19
2022-09-03T07:33:57.538Z,34.91
2022-09-03T07:36:26.276Z,34.77
2022-09-03T07:38:56.838Z,34.88
2022-09-03T07:41:28.994Z,35.11
2022-09-03T07:43:57.317Z,34.96
2022-09-03T07:46:27.294Z,34.50
2022-09-03T07:48:59.120Z,34.60
2022-09-03T07:51:28.959Z,34.32
2022-09-03T07:53:58.147Z,34.12
2022-09-03T07:56:27.002Z,34.57
2022-09-03T07:58:56.729Z,33.85
2022-09-03T08:01:24.934Z,33.51
2022-09-03T08:03:53.448Z,33.87
2022-09-03T08:06:23.381Z,33.54
2022-09-03T08:09:04.557Z,32.74
2022-09-03T08:11:34.746Z,32.28
2022-09-03T08:14:06.743Z,32.44
2022-09-03T08:16:47.359Z,31.70
2022-09-03T08:19:15.238Z,31.47
2022-09-03T08:21:42.293Z,30.76
2022-09-03T08:24:11.148Z,30.69
2022-09-03T08:26:41.336Z,29.29
2022-09-03T08:29:09.210Z,28.74
2022-09-03T08:31:36.873Z,27.35
2022-09-03T08:34:07.254Z,26.25
2022-09-03T08:36:36.841Z,25.29
2022-09-03T08:39:09.889Z,24.33
2022-09-03T08:42:02.261Z,23.94
2022-09-03T08:44:42.097Z,22.41
2022-09-03T08:47:13.308Z,22.28
2022-09-03T08:50:04.306Z,21.38
2022-09-03T08:52:42.542Z,20.14
2022-09-03T08:55:34.312Z,20.30
2022-09-03T08:58:04.050Z,19.13
2022-09-03T09:01:05.487Z,17.71
2022-09-03T09:03:48.741Z,17.70
2022-09-03T09:06:16.136Z,17.36
2022-09-03T09:09:04.835Z,16.93
2022-09-03T09:11:49.784Z,16.65
2022-09-03T09:15:09.037Z,16.86
2022-09-03T09:17:44.668Z,15.60
2022-09-03T09:20:20.708Z,16.16
2022-09-03T09:23:03.211Z,17.06
2022-09-03T09:25:31.850Z,16.63
2022-09-03T09:28:13.406Z,17.09
2022-09-03T09:30:41.052Z,17.07
2022-09-03T09:33:08.102Z,17.14
2022-09-03T09:35:35.140Z,16.54
2022-09-03T09:38:01.919Z,16.29
2022-09-03T09:40:34.472Z,15.82
2022-09-03T09:43:11.092Z,15.63
2022-09-03T09:45:40.924Z,16.46
2022-09-03T09:48:18.778Z,16.79
2022-09-03T09:50:45.813Z,17.27
2022-09-03T09:53:17.888Z,17.44
2022-09-03T09:55:51.886Z,17.47
2022-09-03T09:58:28.343Z,18.06
2022-09-03T10:01:23.238Z,19.14
2022-09-03T10:03:55.412Z,19.75
2022-09-03T10:06:50.502Z,19.24
2022-09-03T10:09:29.917Z,19.22
2022-09-03T10:12:06.388Z,19.35
2022-09-03T10:14:45.495Z,19.70
2022-09-03T10:17:36.748Z,18.90
2022-09-03T10:20:32.205Z,18.50
2022-09-03T10:23:05.065Z,18.80
2022-09-03T10:25:53.516Z,17.60
2022-09-03T10:28:25.729Z,18.86
2022-09-03T10:31:13.476Z,19.19
2022-09-03T10:34:18.952Z,19.26
2022-09-03T10:36:55.941Z,19.38
2022-09-03T10:39:32.302Z,18.59
2022-09-03T10:42:35.101Z,16.77
2022-09-03T10:45:10.796Z,17.04
2022-09-03T10:47:51.861Z,15.87
2022-09-03T10:50:40.031Z,15.51
2022-09-03T10:53:34.744Z,15.37
2022-09-03T10:56:10.721Z,14.64
2022-09-03T10:58:50.872Z,15.40
2022-09-03T11:01:23.598Z,15.50
2022-09-03T11:04:38.405Z,16.36
2022-09-03T11:07:09.789Z,16.34
2022-09-03T11:09:44.093Z,16.39
2022-09-03T11:12:25.397Z,16.52
2022-09-03T11:15:27.961Z,16.14
2022-09-03T11:18:21.387Z,15.98
2022-09-03T11:20:51.724Z,16.26
2022-09-03T11:23:20.463Z,16.22
2022-09-03T11:25:53.574Z,16.11
2022-09-03T11:28:55.660Z,15.73
2022-09-03T11:31:43.492Z,15.94
2022-09-03T11:34:32.233Z,16.44
2022-09-03T11:37:18.800Z,17.02
2022-09-03T11:39:53.981Z,17.66
2022-09-03T11:42:29.460Z,18.18
2022-09-03T11:45:12.665Z,18.88
2022-09-03T11:47:44.535Z,19.87
2022-09-03T11:50:25.088Z,20.32
2022-09-03T11:52:56.821Z,21.19
2022-09-03T11:55:38.328Z,21.84
2022-09-03T11:58:24.393Z,22.50
2022-09-03T12:00:54.075Z,22.95
2022-09-03T12:03:28.618Z,22.89
2022-09-03T12:06:09.020Z,23.51
2022-09-03T12:09:11.303Z,22.29
2022-09-03T12:12:28.936Z,21.66
2022-09-03T12:15:19.745Z,21.30
2022-09-03T12:18:12.537Z,21.03
2022-09-03T12:20:40.912Z,21.53
2022-09-03T12:23:11.037Z,21.48
2022-09-03T12:25:47.608Z,21.10
2022-09-03T12:28:21.923Z,21.67
2022-09-03T12:30:49.352Z,21.38
2022-09-03T12:33:18.425Z,21.58
2022-09-03T12:35:59.859Z,21.90
2022-09-03T12:38:29.571Z,22.13
2022-09-03T12:43:51.989Z,21.86
2022-09-03T12:46:21.090Z,21.92
2022-09-03T12:51:55.338Z,22.45
2022-09-03T12:54:24.009Z,23.17
2022-09-03T12:56:58.500Z,23.58
2022-09-03T12:59:31.298Z,23.37
2022-09-03T13:02:03.385Z,23.33
2022-09-03T13:04:34.631Z,22.91
2022-09-03T13:07:01.370Z,23.72
2022-09-03T13:09:30.854Z,23.31
2022-09-03T13:11:59.210Z,23.14
2022-09-03T13:14:29.235Z,22.69
2022-09-03T13:17:10.677Z,22.83
2022-09-03T13:20:08.362Z,23.32
2022-09-03T13:22:47.482Z,24.06
2022-09-03T13:25:17.272Z,24.19
2022-09-03T13:28:40.107Z,24.87
2022-09-03T13:31:39.127Z,25.27
2022-09-03T13:34:15.825Z,26.10
2022-09-03T13:36:51.945Z,26.01
2022-09-03T13:39:26.811Z,26.12
2022-09-03T13:42:06.703Z,26.18
2022-09-03T13:44:43.584Z,26.02
2022-09-03T13:47:17.536Z,26.25
2022-09-03T13:50:12.018Z,26.36
2022-09-03T13:52:43.048Z,26.52
2022-09-03T13:55:23.928Z,26.65
2022-09-03T13:58:01.836Z,26.70
2022-09-03T14:00:34.784Z,26.47
2022-09-03T14:03:35.671Z,26.47
2022-09-03T14:06:11.661Z,26.15
2022-09-03T14:09:04.875Z,26.56
2022-09-03T14:11:53.223Z,26.43
2022-09-03T14:14:37.753Z,26.41
2022-09-03T14:17:32.750Z,26.78
2022-09-03T14:20:11.741Z,26.83
2022-09-03T14:23:02.919Z,27.04
2022-09-03T14:25:30.143Z,27.46
2022-09-03T14:28:14.448Z,27.78
2022-09-03T14:30:55.880Z,27.79
2022-09-03T14:33:35.061Z,28.32
2022-09-03T14:36:16.810Z,28.84
2022-09-03T14:39:12.667Z,28.88
2022-09-03T14:42:07.567Z,29.52
2022-09-03T14:44:45.873Z,29.81
2022-09-03T14:47:54.974Z,30.18
2022-09-03T14:50:36.691Z,30.86
2022-09-03T14:53:38.676Z,31.33
2022-09-03T14:56:11.606Z,31.72
2022-09-03T14:58:58.516Z,32.01
2022-09-03T15:01:38.921Z,32.13
2022-09-03T15:04:31.858Z,32.27
2022-09-03T15:07:27.831Z,31.95
2022-09-03T15:10:32.933Z,31.81
2022-09-03T15:13:09.303Z,31.78
2022-09-03T15:15:42.164Z,31.73
2022-09-03T15:18:45.875Z,31.98
2022-09-03T15:21:41.074Z,31.77
2022-09-03T15:24:21.510Z,31.42
2022-09-03T15:26:51.294Z,31.47
2022-09-03T15:29:42.217Z,31.75
2022-09-03T15:32:20.788Z,31.75
2022-09-03T15:34:56.432Z,32.04
2022-09-03T15:37:32.923Z,32.17
2022-09-03T15:40:20.445Z,32.66
2022-09-03T15:42:50.486Z,33.03
2022-09-03T15:45:32.708Z,33.64
2022-09-03T15:48:23.605Z,34.25
2022-09-03T15:50:50.414Z,34.64
2022-09-03T15:53:27.913Z,35.40
2022-09-03T15:56:15.125Z,35.78
2022-09-03T15:58:53.722Z,35.87
2022-09-03T16:01:30.150Z,36.38
2022-09-03T16:04:40.960Z,36.87
2022-09-03T16:07:24.183Z,37.65
2022-09-03T16:10:25.321Z,38.21
2022-09-03T16:13:19.088Z,37.98
2022-09-03T16:16:11.335Z,38.51
2022-09-03T16:18:55.829Z,38.87
2022-09-03T16:21:31.573Z,39.27
2022-09-03T16:24:13.000Z,39.73
2022-09-03T16:27:23.970Z,40.39
2022-09-03T16:30:03.085Z,41.13
2022-09-03T16:32:48.103Z,42.12
2022-09-03T16:35:41.523Z,42.43
2022-09-03T16:38:17.488Z,43.17
2022-09-03T16:41:21.540Z,43.49
2022-09-03T16:44:06.914Z,44.31
2022-09-03T16:46:50.654Z,44.72
2022-09-03T16:49:38.199Z,45.29
2022-09-03T16:52:17.616Z,45.71
2022-09-03T16:55:15.219Z,46.39
2022-09-03T16:57:54.599Z,46.59
2022-09-03T17:00:22.136Z,46.73
2022-09-03T17:03:36.801Z,47.40
2022-09-03T17:06:16.736Z,47.88
2022-09-03T17:09:11.470Z,48.86
2022-09-03T17:11:43.066Z,49.14
2022-09-03T17:14:12.623Z,49.61
2022-09-03T17:17:25.758Z,49.98
2022-09-03T17:20:13.738Z,50.83
2022-09-03T17:23:04.738Z,51.20
2022-09-03T17:25:40.958Z,51.73
2022-09-03T17:28:21.432Z,52.14
2022-09-03T17:31:06.463Z,53.09
2022-09-03T17:34:10.631Z,53.41
2022-09-03T17:36:38.755Z,53.82
2022-09-03T17:39:24.080Z,54.02
2022-09-03T17:41:53.350Z,54.35
2022-09-03T17:44:51.711Z,54.87
2022-09-03T17:47:42.590Z,55.45
2022-09-03T17:50:20.111Z,55.57
2022-09-03T17:53:09.476Z,55.87
2022-09-03T17:55:51.735Z,56.27
2022-09-03T17:58:21.525Z,56.72
2022-09-03T18:01:10.743Z,57.31
2022-09-03T18:04:02.162Z,57.86
2022-09-03T18:06:55.670Z,58.62
2022-09-03T18:09:37.613Z,59.15
2022-09-03T18:12:20.637Z,59.52
2022-09-03T18:15:01.100Z,59.79
2022-09-03T18:17:41.612Z,60.60
2022-09-03T18:20:30.701Z,60.93
2022-09-03T18:23:38.735Z,61.35
2022-09-03T18:26:29.427Z,61.59
2022-09-03T18:29:25.906Z,62.25
2022-09-03T18:32:11.524Z,62.44
2022-09-03T18:34:57.781Z,62.84
2022-09-03T18:37:46.123Z,63.25
2022-09-03T18:40:55.377Z,63.97
2022-09-03T18:44:25.317Z,64.09
2022-09-03T18:48:01.633Z,64.57
2022-09-03T18:50:36.007Z,65.02
2022-09-03T18:53:41.002Z,66.06
2022-09-03T18:56:33.200Z,65.76
2022-09-03T18:59:33.982Z,66.42
2022-09-03T19:02:32.099Z,66.24
2022-09-03T19:05:45.138Z,66.97
2022-09-03T19:08:43.833Z,67.11
2022-09-03T19:11:52.299Z,67.58
2022-09-03T19:15:04.056Z,68.00
2022-09-03T19:18:17.608Z,68.71
2022-09-03T19:21:30.475Z,69.04
2022-09-03T19:24:21.094Z,69.30
2022-09-03T19:30:51.701Z,69.40
2022-09-03T19:33:52.153Z,69.46
2022-09-03T19:37:09.421Z,69.34
2022-09-03T19:40:11.011Z,69.70
2022-09-03T19:43:20.724Z,69.75
2022-09-03T19:46:48.527Z,69.77
2022-09-03T19:49:55.807Z,69.60
2022-09-03T19:52:50.202Z,69.96
2022-09-03T19:55:43.126Z,70.61
2022-09-03T19:58:42.481Z,74.56
2022-09-03T20:01:29.809Z,72.66
2022-09-03T20:04:19.123Z,71.89
2022-09-03T20:07:06.253Z,72.11
2022-09-03T20:09:57.080Z,72.34
2022-09-03T20:12:26.761Z,72.20
2022-09-03T20:14:53.873Z,72.90
2022-09-03T20:17:36.366Z,72.91
2022-09-03T20:20:26.382Z,73.62
2022-09-03T20:23:15.387Z,73.86
2022-09-03T20:25:55.009Z,74.18
2022-09-03T20:28:27.820Z,73.97
2022-09-03T20:31:03.084Z,73.80
2022-09-03T20:33:32.482Z,74.08
2022-09-03T20:36:04.948Z,74.04
2022-09-03T20:38:48.195Z,74.38
2022-09-03T20:41:20.638Z,74.99
2022-09-03T20:43:50.087Z,74.90
2022-09-03T20:46:27.615Z,75.60
2022-09-03T20:48:57.986Z,75.42
2022-09-03T20:51:33.254Z,75.44
2022-09-03T20:54:20.230Z,76.18
2022-09-03T20:57:08.915Z,76.63
2022-09-03T21:00:01.540Z,76.28
2022-09-03T21:02:37.568Z,76.60
2022-09-03T21:05:13.716Z,76.30
2022-09-03T21:07:52.515Z,76.75
2022-09-03T21:10:19.192Z,76.29
2022-09-03T21:12:50.152Z,76.15
2022-09-03T21:15:24.772Z,76.28
2022-09-03T21:18:33.078Z,76.60
2022-09-03T21:21:06.128Z,76.74
2022-09-03T21:23:39.375Z,76.61
2022-09-03T21:26:15.184Z,76.97
2022-09-03T21:28:46.794Z,76.36
2022-09-03T21:31:28.954Z,76.66
2022-09-03T21:34:09.749Z,76.33
2022-09-03T21:36:39.466Z,76.94
2022-09-03T21:39:31.575Z,77.03
2022-09-03T21:42:07.283Z,77.13
2022-09-03T21:44:46.922Z,76.86
2022-09-03T21:47:16.551Z,76.36
2022-09-03T21:49:55.292Z,76.76
2022-09-03T21:53:00.802Z,75.92
2022-09-03T21:55:47.400Z,75.93
2022-09-03T21:58:27.935Z,75.47
2022-09-03T22:01:04.379Z,74.96
2022-09-03T22:03:31.422Z,74.59
2022-09-03T22:06:06.640Z,74.86
2022-09-03T22:08:45.408Z,74.80
2022-09-03T22:11:44.014Z,74.67
2022-09-03T22:14:15.572Z,74.09
2022-09-03T22:16:42.309Z,74.50
2022-09-03T22:19:09.167Z,74.52
2022-09-03T22:21:45.588Z,74.12
2022-09-03T22:24:23.562Z,74.26
2022-09-03T22:27:03.222Z,74.55
2022-09-03T22:29:43.831Z,74.02
2022-09-03T22:32:36.283Z,74.39
2022-09-03T22:35:26.164Z,74.00
2022-09-03T22:38:01.783Z,74.60
2022-09-03T22:41:11.705Z,74.58
2022-09-03T22:43:45.335Z,74.81
2022-09-03T22:46:14.416Z,75.16
2022-09-03T22:48:50.907Z,75.28
2022-09-03T22:51:21.601Z,75.85
2022-09-03T22:54:14.344Z,76.02
2022-09-03T22:56:42.011Z,76.19
2022-09-03T22:59:13.085Z,76.47
2022-09-03T23:02:20.849Z,76.81
2022-09-03T23:05:10.653Z,76.88
2022-09-03T23:07:59.401Z,77.32
2022-09-03T23:10:33.443Z,77.51
2022-09-03T23:13:41.961Z,77.90
2022-09-03T23:16:28.228Z,78.30
2022-09-03T23:18:57.672Z,78.73
2022-09-03T23:21:41.066Z,78.58
2022-09-03T23:24:18.136Z,78.99
2022-09-03T23:26:49.492Z,78.81
2022-09-03T23:29:23.639Z,79.32
2022-09-03T23:31:51.312Z,79.67
2022-09-03T23:34:18.151Z,79.91
2022-09-03T23:37:29.251Z,79.92
2022-09-03T23:40:27.002Z,79.80
2022-09-03T23:43:21.000Z,79.68
2022-09-03T23:46:06.554Z,80.26
2022-09-03T23:48:55.184Z,80.48
2022-09-03T23:51:37.119Z,80.68
2022-09-03T23:54:19.115Z,80.03
2022-09-03T23:57:08.354Z,79.93
2022-09-03T23:59:56.374Z,79.97
